Epic St.ivan — 9HA4347 — position and weather

sailwx.info

Track history (hours):
 
Tides and Currents Weather Stations Pressure Air Temp Water Temp Dewpoint Dewpoint Depression Visibility Wind Speed Wind Dir Waves Ship Positions

Epic St.ivan

Last reported at 2018-Jun-19 00:52 UTC. Time now 2018-Jun-19 01:22 UTC.
Position N 36°11' W 005°24'.

Length 99 m; draft 4.6 m.

Type: Tanker. MMSI: 249714000.

Date/timePositionNaut miles runAvg speedWind from/ knotsBaromVisibWave heightAir tempDewpointWater temp
2018-Jun-19 00:52N 36°11' W 005°24'0 0.0
2018-Jun-17 18:39N 36°11' W 005°24'0 1.9
2018-Jun-17 18:30N 36°11' W 005°23'0 0.0
2018-Jun-17 15:09N 36°10' W 005°23'0 0.0
2018-Jun-17 14:57N 36°10' W 005°23'0 0.0
2018-Jun-17 14:27N 36°10' W 005°23'0 0.0
2018-Jun-17 13:51N 36°10' W 005°23'0 0.0
2018-Jun-17 13:27N 36°10' W 005°23'0 0.0
2018-Jun-17 12:57N 36°10' W 005°23'0 0.0
2018-Jun-17 12:21N 36°10' W 005°23'2 0.9
2018-Jun-17 09:51N 36°08' W 005°24'3 6.5
2018-Jun-17 09:25N 36°05' W 005°24'4 9.6
2018-Jun-17 08:57N 36°01' W 005°24'511.8
2018-Jun-17 08:31N 35°58' W 005°29'813.6
2018-Jun-17 07:54N 35°56' W 005°38'512.9
2018-Jun-17 07:29N 35°55' W 005°45'714.3
2018-Jun-17 07:01N 35°55' W 005°53'1014.2
2018-Jun-17 06:18N 35°54' W 006°06'2611.4
2018-Jun-17 04:04N 36°13' W 006°27'1612.9
2018-Jun-17 02:50N 36°27' W 006°36'513.4
2018-Jun-17 02:27N 36°31' W 006°40'40 1.6
2018-Jun-16 00:37N 37°10' W 006°54'0 0.0
2018-Jun-16 00:26N 37°10' W 006°54'2 4.8
2018-Jun-16 00:00N 37°09' W 006°53'4 6.9
2018-Jun-15 23:29N 37°06' W 006°50'  
2018-Jun-13 00:37N 35°59' W 005°57'312.0
2018-Jun-13 00:21N 35°58' W 005°53'612.1
2018-Jun-12 23:54N 35°58' W 005°46'1012.6
2018-Jun-12 23:08N 35°59' W 005°34'111.5
2018-Jun-12 23:00N 35°59' W 005°32'510.6
2018-Jun-12 22:30N 36°01' W 005°26'5 9.7
2018-Jun-12 22:00N 36°05' W 005°24'5 0.1
2018-Jun-11 06:47N 36°10' W 005°25'0 0.0
2018-Jun-11 05:59N 36°10' W 005°25'0 0.0
2018-Jun-11 05:29N 36°10' W 005°25'0 0.0
2018-Jun-11 04:59N 36°10' W 005°25'0 0.0
2018-Jun-11 04:29N 36°10' W 005°25'0 0.0
2018-Jun-11 03:59N 36°10' W 005°25'0 0.0
2018-Jun-11 03:29N 36°10' W 005°25'0 0.0
2018-Jun-11 02:59N 36°10' W 005°25'0 0.0
2018-Jun-11 02:17N 36°10' W 005°25'0 0.0
2018-Jun-11 01:59N 36°10' W 005°25'0 0.0
2018-Jun-11 01:29N 36°10' W 005°25'0 0.0
2018-Jun-11 00:59N 36°10' W 005°25'0 0.0
2018-Jun-10 18:53N 36°10' W 005°25'0 0.0
2018-Jun-10 17:17N 36°10' W 005°25'0 0.0
2018-Jun-10 16:53N 36°10' W 005°25'0 0.0
2018-Jun-10 12:53N 36°10' W 005°25'0 0.0
2018-Jun-10 12:29N 36°10' W 005°25'0 0.0
2018-Jun-10 10:59N 36°10' W 005°25'0 0.0
2018-Jun-10 10:29N 36°10' W 005°25'0 0.0
2018-Jun-10 08:11N 36°10' W 005°25'0 0.0
2018-Jun-10 07:53N 36°10' W 005°25'0 0.0
2018-Jun-10 07:29N 36°10' W 005°25'0 0.0
2018-Jun-10 06:59N 36°10' W 005°25'0 0.0
2018-Jun-10 06:29N 36°10' W 005°25'0 0.1
2018-Jun-10 05:59N 36°10' W 005°25'0 0.1
2018-Jun-10 05:29N 36°10' W 005°25'0 0.0
2018-Jun-10 04:59N 36°10' W 005°25'0 0.0
2018-Jun-10 04:29N 36°10' W 005°25'0 0.0
2018-Jun-10 03:53N 36°10' W 005°25'0 0.0
2018-Jun-10 03:23N 36°10' W 005°25'0 0.0
2018-Jun-10 02:59N 36°10' W 005°25'1 2.4
2018-Jun-10 02:30N 36°09' W 005°25'4 7.7
2018-Jun-10 02:00N 36°05' W 005°24'5 9.6
2018-Jun-10 01:30N 36°00' W 005°24'613.0
2018-Jun-10 01:00N 35°57' W 005°31'814.9
2018-Jun-10 00:30N 35°56' W 005°40'  
Track history (hours):
 
Tides and Currents Weather Stations Pressure Air Temp Water Temp Dewpoint Dewpoint Depression Visibility Wind Speed Wind Dir Waves Ship Positions

Epic St.ivan

Last reported at 2018-Jun-19 00:52 UTC. Time now 2018-Jun-19 01:22 UTC.
Position N 36°11' W 005°24'.

Length 99 m; draft 4.6 m.

Type: Tanker. MMSI: 249714000.

Date/timePositionNaut miles runAvg speedWind from/ knotsBaromVisibWave heightAir tempDewpointWater temp
2018-Jun-19 00:52N 36°11' W 005°24'0 0.0
2018-Jun-17 18:39N 36°11' W 005°24'0 1.9
2018-Jun-17 18:30N 36°11' W 005°23'0 0.0
2018-Jun-17 15:09N 36°10' W 005°23'0 0.0
2018-Jun-17 14:57N 36°10' W 005°23'0 0.0
2018-Jun-17 14:27N 36°10' W 005°23'0 0.0
2018-Jun-17 13:51N 36°10' W 005°23'0 0.0
2018-Jun-17 13:27N 36°10' W 005°23'0 0.0
2018-Jun-17 12:57N 36°10' W 005°23'0 0.0
2018-Jun-17 12:21N 36°10' W 005°23'2 0.9
2018-Jun-17 09:51N 36°08' W 005°24'3 6.5
2018-Jun-17 09:25N 36°05' W 005°24'4 9.6
2018-Jun-17 08:57N 36°01' W 005°24'511.8
2018-Jun-17 08:31N 35°58' W 005°29'813.6
2018-Jun-17 07:54N 35°56' W 005°38'512.9
2018-Jun-17 07:29N 35°55' W 005°45'714.3
2018-Jun-17 07:01N 35°55' W 005°53'1014.2
2018-Jun-17 06:18N 35°54' W 006°06'2611.4
2018-Jun-17 04:04N 36°13' W 006°27'1612.9
2018-Jun-17 02:50N 36°27' W 006°36'513.4
2018-Jun-17 02:27N 36°31' W 006°40'40 1.6
2018-Jun-16 00:37N 37°10' W 006°54'0 0.0
2018-Jun-16 00:26N 37°10' W 006°54'2 4.8
2018-Jun-16 00:00N 37°09' W 006°53'4 6.9
2018-Jun-15 23:29N 37°06' W 006°50'  
2018-Jun-13 00:37N 35°59' W 005°57'312.0
2018-Jun-13 00:21N 35°58' W 005°53'612.1
2018-Jun-12 23:54N 35°58' W 005°46'1012.6
2018-Jun-12 23:08N 35°59' W 005°34'111.5
2018-Jun-12 23:00N 35°59' W 005°32'510.6
2018-Jun-12 22:30N 36°01' W 005°26'5 9.7
2018-Jun-12 22:00N 36°05' W 005°24'5 0.1
2018-Jun-11 06:47N 36°10' W 005°25'0 0.0
2018-Jun-11 05:59N 36°10' W 005°25'0 0.0
2018-Jun-11 05:29N 36°10' W 005°25'0 0.0
2018-Jun-11 04:59N 36°10' W 005°25'0 0.0
2018-Jun-11 04:29N 36°10' W 005°25'0 0.0
2018-Jun-11 03:59N 36°10' W 005°25'0 0.0
2018-Jun-11 03:29N 36°10' W 005°25'0 0.0
2018-Jun-11 02:59N 36°10' W 005°25'0 0.0
2018-Jun-11 02:17N 36°10' W 005°25'0 0.0
2018-Jun-11 01:59N 36°10' W 005°25'0 0.0
2018-Jun-11 01:29N 36°10' W 005°25'0 0.0
2018-Jun-11 00:59N 36°10' W 005°25'0 0.0
2018-Jun-10 18:53N 36°10' W 005°25'0 0.0
2018-Jun-10 17:17N 36°10' W 005°25'0 0.0
2018-Jun-10 16:53N 36°10' W 005°25'0 0.0
2018-Jun-10 12:53N 36°10' W 005°25'0 0.0
2018-Jun-10 12:29N 36°10' W 005°25'0 0.0
2018-Jun-10 10:59N 36°10' W 005°25'0 0.0
2018-Jun-10 10:29N 36°10' W 005°25'0 0.0
2018-Jun-10 08:11N 36°10' W 005°25'0 0.0
2018-Jun-10 07:53N 36°10' W 005°25'0 0.0
2018-Jun-10 07:29N 36°10' W 005°25'0 0.0
2018-Jun-10 06:59N 36°10' W 005°25'0 0.0
2018-Jun-10 06:29N 36°10' W 005°25'0 0.1
2018-Jun-10 05:59N 36°10' W 005°25'0 0.1
2018-Jun-10 05:29N 36°10' W 005°25'0 0.0
2018-Jun-10 04:59N 36°10' W 005°25'0 0.0
2018-Jun-10 04:29N 36°10' W 005°25'0 0.0
2018-Jun-10 03:53N 36°10' W 005°25'0 0.0
2018-Jun-10 03:23N 36°10' W 005°25'0 0.0
2018-Jun-10 02:59N 36°10' W 005°25'1 2.4
2018-Jun-10 02:30N 36°09' W 005°25'4 7.7
2018-Jun-10 02:00N 36°05' W 005°24'5 9.6
2018-Jun-10 01:30N 36°00' W 005°24'613.0
2018-Jun-10 01:00N 35°57' W 005°31'814.9
2018-Jun-10 00:30N 35°56' W 005°40'  

Dump ship's entire track history